createdAt,value
2019-02-10T00:00:38.030Z,64.30
2019-02-10T00:03:08.776Z,64.50
2019-02-10T00:05:40.618Z,64.50
2019-02-10T00:08:12.353Z,64.50
2019-02-10T00:10:42.912Z,64.50
2019-02-10T00:13:27.458Z,64.60
2019-02-10T00:15:58.706Z,64.80
2019-02-10T00:18:29.359Z,64.70
2019-02-10T00:21:00.025Z,64.70
2019-02-10T00:23:30.789Z,64.90
2019-02-10T00:26:01.413Z,64.90
2019-02-10T00:28:32.000Z,65.00
2019-02-10T00:31:02.704Z,65.00
2019-02-10T00:33:33.399Z,65.00
2019-02-10T00:36:04.026Z,65.20
2019-02-10T00:38:34.776Z,65.20
2019-02-10T00:41:05.422Z,65.30
2019-02-10T00:43:36.181Z,65.20
2019-02-10T00:46:07.241Z,65.40
2019-02-10T00:48:37.946Z,65.30
2019-02-10T00:51:08.671Z,65.30
2019-02-10T00:53:39.356Z,65.40
2019-02-10T00:56:10.003Z,65.50
2019-02-10T00:58:40.616Z,65.50
2019-02-10T01:01:11.376Z,65.50
2019-02-10T01:03:42.150Z,66.20
2019-02-10T01:06:13.209Z,65.40
2019-02-10T01:08:43.943Z,65.40
2019-02-10T01:11:14.511Z,65.40
2019-02-10T01:13:45.202Z,65.50
2019-02-10T01:16:15.889Z,65.70
2019-02-10T01:19:08.748Z,65.80
2019-02-10T01:21:43.901Z,65.80
2019-02-10T01:24:14.491Z,65.90
2019-02-10T01:26:45.155Z,65.90
2019-02-10T01:29:15.794Z,66.20
2019-02-10T01:31:46.562Z,66.30
2019-02-10T01:34:17.143Z,66.40
2019-02-10T01:36:49.698Z,66.40
2019-02-10T01:39:21.639Z,66.50
2019-02-10T01:41:52.565Z,66.60
2019-02-10T01:44:23.193Z,66.70
2019-02-10T01:46:53.840Z,66.70
2019-02-10T01:49:24.428Z,66.70
2019-02-10T01:51:54.990Z,66.80
2019-02-10T01:54:26.031Z,66.70
2019-02-10T01:56:56.611Z,66.80
2019-02-10T01:59:27.272Z,66.90
2019-02-10T02:01:57.936Z,66.80
2019-02-10T02:04:28.475Z,67.00
2019-02-10T02:06:59.043Z,67.00
2019-02-10T02:09:30.837Z,67.20
2019-02-10T02:12:01.484Z,67.40
2019-02-10T02:14:32.134Z,67.30
2019-02-10T02:17:02.893Z,67.50
2019-02-10T02:19:33.555Z,67.70
2019-02-10T02:22:04.163Z,67.50
2019-02-10T02:24:35.857Z,67.70
2019-02-10T02:27:06.562Z,67.80
2019-02-10T02:29:37.173Z,67.90
2019-02-10T02:32:07.857Z,68.20
2019-02-10T02:34:38.801Z,68.00
2019-02-10T02:37:09.783Z,68.10
2019-02-10T02:39:40.412Z,67.90
2019-02-10T02:42:11.013Z,68.20
2019-02-10T02:44:41.681Z,68.30
2019-02-10T02:47:12.410Z,68.30
2019-02-10T02:49:43.033Z,68.30
2019-02-10T02:52:13.686Z,68.50
2019-02-10T02:54:44.370Z,68.40
2019-02-10T02:57:15.058Z,68.70
2019-02-10T02:59:45.771Z,68.80
2019-02-10T03:02:16.385Z,68.60
2019-02-10T03:04:47.131Z,68.60
2019-02-10T03:07:18.725Z,68.80
2019-02-10T03:09:49.505Z,68.80
2019-02-10T03:12:20.152Z,68.90
2019-02-10T03:14:50.796Z,68.90
2019-02-10T03:17:21.615Z,68.90
2019-02-10T03:19:52.139Z,69.10
2019-02-10T03:22:23.866Z,69.10
2019-02-10T03:24:54.492Z,69.30
2019-02-10T03:27:25.097Z,69.30
2019-02-10T03:29:55.724Z,69.30
2019-02-10T03:32:26.431Z,69.60
2019-02-10T03:34:57.414Z,69.50
2019-02-10T03:37:28.141Z,69.60
2019-02-10T03:39:58.694Z,69.70
2019-02-10T03:42:29.226Z,69.70
2019-02-10T03:45:00.285Z,69.90
2019-02-10T03:47:31.023Z,69.90
2019-02-10T03:50:02.062Z,70.20
2019-02-10T03:52:32.782Z,70.20
2019-02-10T03:55:03.384Z,70.40
2019-02-10T03:57:34.167Z,71.20
2019-02-10T04:00:05.197Z,70.40
2019-02-10T04:02:36.079Z,70.80
2019-02-10T04:05:06.929Z,70.60
2019-02-10T04:07:37.455Z,70.70
2019-02-10T04:10:08.682Z,70.70
2019-02-10T04:12:39.438Z,70.70
2019-02-10T04:15:10.309Z,70.70
2019-02-10T04:17:40.877Z,70.80
2019-02-10T04:20:11.937Z,70.80
2019-02-10T04:22:42.610Z,70.70
2019-02-10T04:25:13.276Z,70.80
2019-02-10T04:27:44.017Z,70.80
2019-02-10T04:30:14.735Z,70.80
2019-02-10T04:32:45.417Z,71.10
2019-02-10T04:35:16.363Z,71.00
2019-02-10T04:37:47.019Z,71.10
2019-02-10T04:40:17.661Z,71.10
2019-02-10T04:42:48.889Z,71.30
2019-02-10T04:45:19.507Z,71.60
2019-02-10T04:47:50.106Z,71.60
2019-02-10T04:50:21.069Z,71.60
2019-02-10T04:52:51.834Z,71.60
2019-02-10T04:55:22.493Z,71.60
2019-02-10T04:57:53.180Z,71.80
2019-02-10T05:00:23.951Z,71.80
2019-02-10T05:02:54.679Z,71.70
2019-02-10T05:05:25.663Z,72.00
2019-02-10T05:07:56.205Z,71.80
2019-02-10T05:10:26.925Z,72.00
2019-02-10T05:12:57.703Z,72.00
2019-02-10T05:15:28.584Z,72.00
2019-02-10T05:17:59.268Z,72.10
2019-02-10T05:20:29.985Z,72.20
2019-02-10T05:23:00.606Z,72.20
2019-02-10T05:25:31.311Z,72.10
2019-02-10T05:28:02.289Z,72.90
2019-02-10T05:30:33.240Z,72.20
2019-02-10T05:33:03.788Z,72.10
2019-02-10T05:35:34.429Z,73.00
2019-02-10T05:38:05.146Z,72.40
2019-02-10T05:40:36.286Z,72.30
2019-02-10T05:43:06.804Z,72.40
2019-02-10T05:45:37.470Z,72.40
2019-02-10T05:48:08.052Z,72.40
2019-02-10T05:50:39.008Z,72.40
2019-02-10T05:53:09.645Z,72.40
2019-02-10T05:55:40.546Z,72.40
2019-02-10T05:58:11.231Z,72.40
2019-02-10T06:00:41.904Z,72.50
2019-02-10T06:03:12.641Z,72.50
2019-02-10T06:05:43.299Z,72.50
2019-02-10T06:08:13.951Z,72.50
2019-02-10T06:10:44.602Z,72.50
2019-02-10T06:13:15.221Z,72.50
2019-02-10T06:15:45.784Z,72.50
2019-02-10T06:18:16.468Z,72.60
2019-02-10T06:20:47.020Z,72.80
2019-02-10T06:23:17.599Z,72.90
2019-02-10T06:25:48.215Z,72.70
2019-02-10T06:28:18.746Z,72.70
2019-02-10T06:30:49.713Z,72.70
2019-02-10T06:33:20.402Z,72.70
2019-02-10T06:35:51.008Z,72.60
2019-02-10T06:38:22.754Z,72.70
2019-02-10T06:40:53.513Z,72.60
2019-02-10T06:43:24.606Z,72.60
2019-02-10T06:45:55.312Z,72.60
2019-02-10T06:48:25.974Z,72.60
2019-02-10T06:50:56.653Z,72.50
2019-02-10T06:53:27.380Z,72.60
2019-02-10T06:55:57.975Z,72.50
2019-02-10T06:58:28.590Z,72.70
2019-02-10T07:01:08.537Z,72.50
2019-02-10T07:04:00.195Z,72.50
2019-02-10T07:06:30.976Z,72.40
2019-02-10T07:09:01.709Z,72.40
2019-02-10T07:11:34.013Z,72.30
2019-02-10T07:14:07.936Z,72.40
2019-02-10T07:16:51.480Z,72.40
2019-02-10T07:20:15.027Z,72.50
2019-02-10T07:22:57.381Z,72.40
2019-02-10T07:26:06.297Z,72.20
2019-02-10T07:29:36.461Z,72.30
2019-02-10T07:32:23.660Z,72.30
2019-02-10T07:35:40.594Z,72.30
2019-02-10T07:39:05.129Z,72.30
2019-02-10T07:42:13.945Z,72.20
2019-02-10T07:45:13.199Z,72.20
2019-02-10T07:48:26.877Z,72.20
2019-02-10T07:51:37.171Z,72.20
2019-02-10T07:54:42.350Z,72.00
2019-02-10T07:57:52.133Z,72.00
2019-02-10T08:00:35.398Z,72.00
2019-02-10T08:03:36.960Z,71.80
2019-02-10T08:06:33.500Z,72.70
2019-02-10T08:09:43.963Z,71.60
2019-02-10T08:12:41.177Z,72.30
2019-02-10T08:15:33.447Z,71.40
2019-02-10T08:18:26.486Z,71.20
2019-02-10T08:21:26.861Z,71.10
2019-02-10T08:24:24.718Z,71.00
2019-02-10T08:27:39.578Z,70.60
2019-02-10T08:30:58.342Z,70.50
2019-02-10T08:33:40.285Z,70.30
2019-02-10T08:36:56.166Z,70.40
2019-02-10T08:39:50.274Z,70.10
2019-02-10T08:42:36.301Z,69.90
2019-02-10T08:45:28.519Z,69.60
2019-02-10T08:48:38.078Z,69.70
2019-02-10T08:51:44.720Z,69.90
2019-02-10T08:54:15.300Z,69.90
2019-02-10T08:56:45.920Z,69.80
2019-02-10T08:59:16.932Z,69.90
2019-02-10T09:01:47.513Z,70.60
2019-02-10T09:04:19.170Z,70.00
2019-02-10T09:06:49.911Z,69.90
2019-02-10T09:09:20.507Z,69.80
2019-02-10T09:11:51.280Z,69.80
2019-02-10T09:14:22.002Z,69.80
2019-02-10T09:16:52.766Z,69.50
2019-02-10T09:19:23.392Z,69.50
2019-02-10T09:21:54.062Z,69.40
2019-02-10T09:24:25.054Z,69.10
2019-02-10T09:26:55.649Z,69.00
2019-02-10T09:29:26.333Z,69.10
2019-02-10T09:31:58.107Z,69.10
2019-02-10T09:34:29.127Z,69.40
2019-02-10T09:36:59.864Z,69.70
2019-02-10T09:39:30.523Z,69.80
2019-02-10T09:42:01.153Z,70.00
2019-02-10T09:44:32.105Z,70.30
2019-02-10T09:47:02.870Z,70.20
2019-02-10T09:49:33.550Z,70.20
2019-02-10T09:52:04.233Z,70.10
2019-02-10T09:54:34.747Z,70.10
2019-02-10T09:57:05.508Z,69.90
2019-02-10T09:59:36.542Z,70.00
2019-02-10T10:02:07.129Z,69.90
2019-02-10T10:04:39.055Z,70.00
2019-02-10T10:07:09.855Z,70.10
2019-02-10T10:09:40.580Z,70.00
2019-02-10T10:12:11.259Z,69.60
2019-02-10T10:14:41.975Z,69.40
2019-02-10T10:17:12.738Z,69.30
2019-02-10T10:19:43.335Z,69.50
2019-02-10T10:22:13.960Z,69.20
2019-02-10T10:24:50.351Z,69.00
2019-02-10T10:27:16.857Z,69.30
2019-02-10T10:29:47.511Z,69.30
2019-02-10T10:32:18.274Z,69.40
2019-02-10T10:34:50.285Z,69.10
2019-02-10T10:37:20.931Z,69.20
2019-02-10T10:39:51.648Z,68.80
2019-02-10T10:42:22.221Z,68.70
2019-02-10T10:44:52.897Z,68.80
2019-02-10T10:47:23.589Z,68.10
2019-02-10T10:49:54.305Z,68.40
2019-02-10T10:52:24.989Z,68.40
2019-02-10T10:54:55.696Z,67.50
2019-02-10T10:57:26.362Z,68.10
2019-02-10T10:59:57.035Z,68.00
2019-02-10T11:02:27.644Z,68.30
2019-02-10T11:04:58.271Z,67.70
2019-02-10T11:07:28.845Z,67.30
2019-02-10T11:09:59.897Z,66.50
2019-02-10T11:12:30.470Z,65.60
2019-02-10T11:15:01.091Z,64.50
2019-02-10T11:17:31.913Z,64.20
2019-02-10T11:20:02.776Z,63.20
2019-02-10T11:22:33.632Z,61.90
2019-02-10T11:25:04.684Z,61.60
2019-02-10T11:27:35.227Z,61.10
2019-02-10T11:30:06.107Z,61.20
2019-02-10T11:32:36.801Z,61.10
2019-02-10T11:35:07.910Z,60.00
2019-02-10T11:37:38.448Z,59.50
2019-02-10T11:40:09.209Z,59.40
2019-02-10T11:42:39.808Z,59.20
2019-02-10T11:45:10.866Z,58.90
2019-02-10T11:47:41.455Z,59.40
2019-02-10T11:50:12.042Z,59.10
2019-02-10T11:52:42.624Z,58.30
2019-02-10T11:55:13.871Z,58.30
2019-02-10T11:57:44.750Z,58.50
2019-02-10T12:00:15.657Z,58.20
2019-02-10T12:02:46.235Z,57.50
2019-02-10T12:05:17.589Z,57.40
2019-02-10T12:07:48.601Z,57.20
2019-02-10T12:10:19.687Z,56.40
2019-02-10T12:12:50.364Z,56.40
2019-02-10T12:15:21.101Z,56.50
2019-02-10T12:17:51.774Z,56.00
2019-02-10T12:20:22.429Z,56.00
2019-02-10T12:22:53.238Z,54.90
2019-02-10T12:25:23.932Z,55.30
2019-02-10T12:27:54.913Z,54.80
2019-02-10T12:30:25.595Z,55.10
2019-02-10T12:32:56.211Z,53.90
2019-02-10T12:35:26.996Z,54.20
2019-02-10T12:37:57.776Z,54.20
2019-02-10T12:40:28.656Z,54.20
2019-02-10T12:42:59.342Z,54.20
2019-02-10T12:45:30.044Z,53.90
2019-02-10T12:48:00.701Z,53.80
2019-02-10T12:50:31.314Z,53.80
2019-02-10T12:53:01.957Z,54.00
2019-02-10T12:55:32.612Z,53.30
2019-02-10T12:58:03.113Z,53.10
2019-02-10T13:00:33.758Z,52.80
2019-02-10T13:03:04.347Z,52.60
2019-02-10T13:05:34.931Z,52.40
2019-02-10T13:08:05.954Z,52.80
2019-02-10T13:10:36.516Z,52.20
2019-02-10T13:13:26.189Z,52.60
2019-02-10T13:15:56.905Z,52.40
2019-02-10T13:18:27.574Z,52.20
2019-02-10T13:20:58.225Z,52.50
2019-02-10T13:23:28.885Z,52.30
2019-02-10T13:25:59.511Z,52.40
2019-02-10T13:28:30.175Z,52.50
2019-02-10T13:31:00.824Z,52.10
2019-02-10T13:33:31.910Z,51.90
2019-02-10T13:36:02.946Z,52.20
2019-02-10T13:38:33.498Z,52.20
2019-02-10T13:41:04.228Z,52.20
2019-02-10T13:43:34.913Z,52.20
2019-02-10T13:46:05.590Z,52.30
2019-02-10T13:48:36.555Z,52.10
2019-02-10T13:51:07.191Z,51.90
2019-02-10T13:53:38.021Z,51.80
2019-02-10T13:56:08.921Z,51.80
2019-02-10T13:58:41.076Z,51.60
2019-02-10T14:01:12.325Z,51.70
2019-02-10T14:03:43.433Z,51.30
2019-02-10T14:06:14.711Z,51.60
2019-02-10T14:08:45.952Z,51.40
2019-02-10T14:11:18.238Z,51.30
2019-02-10T14:14:00.919Z,51.40
2019-02-10T14:16:31.625Z,51.20
2019-02-10T14:19:02.451Z,51.40
2019-02-10T14:21:33.061Z,51.40
2019-02-10T14:24:03.620Z,51.40
2019-02-10T14:26:34.227Z,51.30
2019-02-10T14:29:05.931Z,51.20
2019-02-10T14:31:36.467Z,51.40
2019-02-10T14:34:07.117Z,51.60
2019-02-10T14:36:37.801Z,51.90
2019-02-10T14:39:08.499Z,51.90
2019-02-10T14:41:39.083Z,52.20
2019-02-10T14:44:09.736Z,52.40
2019-02-10T14:46:40.402Z,52.60
2019-02-10T14:49:11.055Z,53.30
2019-02-10T14:51:41.626Z,53.80
2019-02-10T14:54:12.279Z,54.20
2019-02-10T14:56:43.237Z,54.60
2019-02-10T14:59:13.744Z,55.00
2019-02-10T15:01:44.454Z,55.20
2019-02-10T15:04:15.467Z,55.50
2019-02-10T15:06:46.109Z,55.70
2019-02-10T15:09:16.745Z,56.00
2019-02-10T15:11:47.382Z,56.50
2019-02-10T15:14:17.917Z,56.70
2019-02-10T15:16:48.623Z,56.90
2019-02-10T15:19:19.391Z,57.40
2019-02-10T15:21:50.079Z,58.10
2019-02-10T15:24:21.150Z,58.50
2019-02-10T15:26:51.835Z,58.90
2019-02-10T15:29:22.514Z,59.20
2019-02-10T15:31:53.249Z,59.70
2019-02-10T15:34:23.811Z,60.10
2019-02-10T15:36:54.433Z,60.40
2019-02-10T15:39:25.303Z,61.10
2019-02-10T15:41:56.021Z,61.90
2019-02-10T15:44:26.709Z,61.40
2019-02-10T15:46:57.431Z,61.80
2019-02-10T15:49:28.030Z,62.20
2019-02-10T15:51:58.732Z,62.30
2019-02-10T15:54:30.463Z,63.00
2019-02-10T15:57:01.234Z,63.10
2019-02-10T15:59:32.020Z,63.70
2019-02-10T16:02:02.813Z,64.40
2019-02-10T16:04:33.406Z,64.80
2019-02-10T16:07:04.117Z,64.90
2019-02-10T16:09:35.122Z,65.10
2019-02-10T16:12:05.736Z,65.60
2019-02-10T16:14:36.336Z,65.90
2019-02-10T16:17:07.049Z,66.40
2019-02-10T16:19:37.711Z,66.70
2019-02-10T16:22:08.438Z,67.50
2019-02-10T16:24:39.074Z,68.50
2019-02-10T16:27:09.630Z,67.80
2019-02-10T16:29:40.645Z,68.50
2019-02-10T16:32:11.223Z,68.30
2019-02-10T16:34:41.779Z,68.80
2019-02-10T16:37:12.449Z,69.40
2019-02-10T16:39:43.065Z,69.00
2019-02-10T16:42:13.709Z,69.00
2019-02-10T16:44:44.260Z,69.40
2019-02-10T16:47:14.955Z,69.80
2019-02-10T16:49:45.605Z,69.70
2019-02-10T16:52:16.337Z,69.40
2019-02-10T16:54:46.957Z,69.30
2019-02-10T16:57:17.748Z,69.40
2019-02-10T16:59:49.484Z,69.50
2019-02-10T17:02:20.091Z,70.20
2019-02-10T17:04:50.802Z,70.10
2019-02-10T17:07:21.472Z,70.10
2019-02-10T17:09:52.507Z,70.10
2019-02-10T17:12:23.133Z,70.40
2019-02-10T17:14:54.317Z,70.60
2019-02-10T17:17:25.463Z,70.70
2019-02-10T17:19:56.463Z,70.90
2019-02-10T17:22:27.205Z,71.40
2019-02-10T17:24:57.786Z,71.30
2019-02-10T17:27:28.530Z,71.50
2019-02-10T17:29:59.111Z,71.50
2019-02-10T17:32:29.884Z,71.80
2019-02-10T17:35:00.548Z,72.00
2019-02-10T17:37:31.254Z,72.10
2019-02-10T17:40:01.925Z,72.10
2019-02-10T17:42:33.095Z,72.00
2019-02-10T17:45:03.742Z,72.70
2019-02-10T17:47:34.418Z,72.40
2019-02-10T17:50:05.357Z,72.60
2019-02-10T17:52:36.044Z,73.10
2019-02-10T17:55:07.212Z,73.10
2019-02-10T17:57:37.984Z,73.00
2019-02-10T18:00:09.631Z,73.80
2019-02-10T18:02:40.453Z,73.50
2019-02-10T18:05:11.255Z,73.40
2019-02-10T18:07:41.908Z,73.50
2019-02-10T18:10:12.731Z,73.80
2019-02-10T18:12:43.495Z,73.50
2019-02-10T18:15:36.213Z,73.90
2019-02-10T18:18:25.306Z,73.90
2019-02-10T18:21:16.928Z,73.90
2019-02-10T18:24:12.889Z,74.00
2019-02-10T18:26:53.847Z,73.80
2019-02-10T18:29:36.600Z,73.80
2019-02-10T18:32:30.755Z,73.90
2019-02-10T18:35:30.085Z,73.90
2019-02-10T18:38:34.677Z,73.80
2019-02-10T18:41:23.439Z,73.80
2019-02-10T18:44:11.285Z,73.70
2019-02-10T18:47:00.010Z,73.60
2019-02-10T18:49:48.311Z,73.70
2019-02-10T18:52:30.888Z,73.60
2019-02-10T18:55:15.201Z,73.50
2019-02-10T18:57:56.099Z,73.60
2019-02-10T19:00:48.739Z,73.80
2019-02-10T19:03:27.459Z,73.70
2019-02-10T19:06:09.279Z,73.60
2019-02-10T19:09:03.786Z,73.50
2019-02-10T19:12:09.651Z,73.40
2019-02-10T19:14:58.027Z,73.50
2019-02-10T19:17:46.398Z,73.40
2019-02-10T19:20:26.011Z,73.40
2019-02-10T19:23:02.510Z,73.60
2019-02-10T19:25:52.877Z,73.70
2019-02-10T19:28:54.875Z,73.80
2019-02-10T19:31:43.535Z,73.90
2019-02-10T19:34:25.320Z,74.00
2019-02-10T19:37:15.099Z,73.90
2019-02-10T19:39:52.087Z,74.00
2019-02-10T19:42:29.889Z,74.10
2019-02-10T19:45:18.808Z,74.10
2019-02-10T19:48:00.401Z,74.20
2019-02-10T19:50:49.982Z,74.10
2019-02-10T19:53:39.615Z,74.20
2019-02-10T19:56:27.790Z,74.30
2019-02-10T19:59:16.378Z,74.50
2019-02-10T20:02:08.736Z,74.90
2019-02-10T20:05:05.171Z,74.70
2019-02-10T20:08:07.599Z,74.60
2019-02-10T20:11:00.531Z,74.50
2019-02-10T20:13:45.791Z,74.50
2019-02-10T20:16:34.638Z,74.50
2019-02-10T20:19:27.094Z,74.40
2019-02-10T20:22:14.924Z,74.20
2019-02-10T20:25:01.994Z,74.20
2019-02-10T20:28:05.117Z,74.30
2019-02-10T20:30:56.420Z,74.50
2019-02-10T20:33:45.586Z,74.70
2019-02-10T20:36:33.796Z,74.80
2019-02-10T20:39:26.737Z,75.20
2019-02-10T20:42:28.457Z,75.20
2019-02-10T20:45:23.961Z,75.40
2019-02-10T20:48:13.538Z,74.90
2019-02-10T20:51:07.634Z,74.70
2019-02-10T20:54:06.170Z,74.00
2019-02-10T20:56:54.963Z,74.60
2019-02-10T20:59:50.740Z,73.90
2019-02-10T21:02:33.875Z,74.00
2019-02-10T21:05:21.272Z,74.30
2019-02-10T21:08:10.965Z,74.40
2019-02-10T21:10:59.437Z,74.70
2019-02-10T21:13:42.180Z,74.90
2019-02-10T21:16:31.775Z,75.00
2019-02-10T21:19:09.644Z,75.30
2019-02-10T21:22:08.247Z,75.40
2019-02-10T21:25:03.290Z,75.60
2019-02-10T21:27:52.717Z,75.20
2019-02-10T21:30:45.106Z,74.90
2019-02-10T21:33:28.286Z,74.90
2019-02-10T21:36:36.843Z,75.00
2019-02-10T21:39:17.577Z,75.30
2019-02-10T21:42:06.420Z,75.30
2019-02-10T21:44:58.845Z,75.60
2019-02-10T21:47:34.713Z,75.50
2019-02-10T21:50:05.949Z,75.20
2019-02-10T21:52:36.574Z,75.00
2019-02-10T21:55:08.805Z,74.80
2019-02-10T21:57:40.419Z,74.80
2019-02-10T22:00:12.522Z,74.80
2019-02-10T22:02:43.425Z,74.70
2019-02-10T22:05:14.168Z,74.30
2019-02-10T22:07:44.883Z,74.10
2019-02-10T22:10:15.541Z,74.10
2019-02-10T22:12:46.188Z,73.80
2019-02-10T22:15:16.745Z,74.20
2019-02-10T22:17:47.439Z,74.10
2019-02-10T22:20:18.179Z,74.00
2019-02-10T22:22:48.903Z,74.70
2019-02-10T22:25:19.577Z,73.70
2019-02-10T22:27:50.270Z,73.90
2019-02-10T22:30:20.900Z,73.70
2019-02-10T22:32:51.593Z,73.90
2019-02-10T22:35:22.191Z,73.90
2019-02-10T22:37:53.063Z,74.00
2019-02-10T22:40:23.687Z,74.00
2019-02-10T22:42:54.259Z,74.20
2019-02-10T22:45:25.091Z,74.20
2019-02-10T22:47:55.739Z,74.30
2019-02-10T22:50:26.373Z,74.40
2019-02-10T22:52:57.112Z,74.50
2019-02-10T22:55:27.822Z,74.50
2019-02-10T22:57:58.515Z,74.50
2019-02-10T23:00:49.082Z,74.50
2019-02-10T23:03:20.513Z,74.50
2019-02-10T23:05:51.254Z,74.50
2019-02-10T23:08:21.825Z,75.40
2019-02-10T23:10:52.516Z,74.40
2019-02-10T23:13:23.797Z,74.60
2019-02-10T23:15:54.383Z,74.60
2019-02-10T23:18:24.957Z,74.70
2019-02-10T23:20:56.000Z,74.70
2019-02-10T23:23:26.590Z,74.70
2019-02-10T23:25:57.338Z,74.80
2019-02-10T23:28:28.047Z,74.90
2019-02-10T23:30:58.730Z,74.80
2019-02-10T23:33:29.381Z,74.80
2019-02-10T23:35:59.940Z,74.70
2019-02-10T23:38:30.505Z,75.50
2019-02-10T23:41:01.517Z,74.80
2019-02-10T23:43:32.361Z,74.80
2019-02-10T23:46:03.331Z,74.80
2019-02-10T23:48:33.910Z,75.00
2019-02-10T23:51:04.442Z,75.10
2019-02-10T23:53:35.191Z,75.10
2019-02-10T23:56:05.807Z,75.00
2019-02-10T23:58:36.852Z,74.90
